createdAt,value
2022-08-16T00:00:25.788Z,11.35
2022-08-16T00:03:13.588Z,11.32
2022-08-16T00:05:48.260Z,11.93
2022-08-16T00:08:35.821Z,12.27
2022-08-16T00:11:15.362Z,11.90
2022-08-16T00:13:53.309Z,11.93
2022-08-16T00:17:05.812Z,12.00
2022-08-16T00:21:44.130Z,11.35
2022-08-16T00:24:31.229Z,11.18
2022-08-16T00:27:05.312Z,11.02
2022-08-16T00:29:37.861Z,11.85
2022-08-16T00:32:08.672Z,11.45
2022-08-16T00:34:44.607Z,11.68
2022-08-16T00:37:57.728Z,11.63
2022-08-16T00:40:35.019Z,12.18
2022-08-16T00:43:12.266Z,11.23
2022-08-16T00:46:00.142Z,12.13
2022-08-16T00:48:45.619Z,12.10
2022-08-16T00:51:17.533Z,11.90
2022-08-16T00:53:47.620Z,12.57
2022-08-16T00:56:56.495Z,11.50
2022-08-16T00:59:15.272Z,12.07
2022-08-16T01:01:46.259Z,11.90
2022-08-16T01:04:29.148Z,12.60
2022-08-16T01:07:02.594Z,12.15
2022-08-16T01:09:34.318Z,12.63
2022-08-16T01:12:10.720Z,11.88
2022-08-16T01:14:47.423Z,11.63
2022-08-16T01:17:19.882Z,12.15
2022-08-16T01:19:57.423Z,12.05
2022-08-16T01:22:47.467Z,11.98
2022-08-16T01:25:23.660Z,12.70
2022-08-16T01:28:07.920Z,12.27
2022-08-16T01:30:49.899Z,12.27
2022-08-16T01:33:22.559Z,11.35
2022-08-16T01:35:58.381Z,11.27
2022-08-16T01:38:31.900Z,11.50
2022-08-16T01:41:07.479Z,11.07
2022-08-16T01:43:40.130Z,12.40
2022-08-16T01:46:37.978Z,11.90
2022-08-16T01:49:20.112Z,11.38
2022-08-16T01:51:55.122Z,11.70
2022-08-16T01:54:31.564Z,11.43
2022-08-16T01:57:03.390Z,11.00
2022-08-16T01:59:34.697Z,11.95
2022-08-16T02:02:05.019Z,11.68
2022-08-16T02:07:26.905Z,11.30
2022-08-16T02:09:58.887Z,11.20
2022-08-16T02:12:51.860Z,11.80
2022-08-16T02:15:29.224Z,12.35
2022-08-16T02:18:02.292Z,11.20
2022-08-16T02:20:35.160Z,11.23
2022-08-16T02:23:06.121Z,11.45
2022-08-16T02:25:50.683Z,11.43
2022-08-16T02:28:23.891Z,10.57
2022-08-16T02:30:54.683Z,10.93
2022-08-16T02:33:43.390Z,11.75
2022-08-16T02:36:42.426Z,10.35
2022-08-16T02:39:10.356Z,11.18
2022-08-16T02:41:41.020Z,11.48
2022-08-16T02:44:14.731Z,11.05
2022-08-16T02:46:50.617Z,12.48
2022-08-16T02:49:32.305Z,11.68
2022-08-16T02:52:17.182Z,11.93
2022-08-16T02:54:57.043Z,11.73
2022-08-16T02:57:27.693Z,13.13
2022-08-16T03:00:00.066Z,11.13
2022-08-16T03:02:31.837Z,11.68
2022-08-16T03:05:06.211Z,12.02
2022-08-16T03:07:37.737Z,11.45
2022-08-16T03:10:12.604Z,11.73
2022-08-16T03:12:56.270Z,11.32
2022-08-16T03:15:29.875Z,14.35
2022-08-16T03:17:59.237Z,12.27
2022-08-16T03:20:34.302Z,13.18
2022-08-16T03:23:06.946Z,11.63
2022-08-16T03:25:43.932Z,12.38
2022-08-16T03:28:17.220Z,12.23
2022-08-16T03:30:49.843Z,14.38
2022-08-16T03:33:20.073Z,11.90
2022-08-16T03:36:29.742Z,13.63
2022-08-16T03:38:53.281Z,12.90
2022-08-16T03:44:01.714Z,11.93
2022-08-16T03:46:47.236Z,13.25
2022-08-16T03:49:24.711Z,13.27
2022-08-16T03:52:08.914Z,12.68
2022-08-16T03:54:53.454Z,13.05
2022-08-16T03:57:31.832Z,14.02
2022-08-16T04:00:20.767Z,13.90
2022-08-16T04:03:09.507Z,13.07
2022-08-16T04:05:47.346Z,13.85
2022-08-16T04:08:23.322Z,13.98
2022-08-16T04:11:01.118Z,13.88
2022-08-16T04:14:00.893Z,14.43
2022-08-16T04:16:27.341Z,13.25
2022-08-16T04:19:05.675Z,14.82
2022-08-16T04:21:45.828Z,14.25
2022-08-16T04:24:17.419Z,14.18
2022-08-16T04:26:46.900Z,14.40
2022-08-16T04:29:23.667Z,12.50
2022-08-16T04:31:57.759Z,14.32
2022-08-16T04:34:37.198Z,14.20
2022-08-16T04:37:08.125Z,14.60
2022-08-16T04:39:47.268Z,12.50
2022-08-16T04:42:29.674Z,13.85
2022-08-16T04:45:02.052Z,14.45
2022-08-16T04:47:36.120Z,13.18
2022-08-16T04:50:14.993Z,13.65
2022-08-16T04:53:22.905Z,12.52
2022-08-16T04:55:55.890Z,14.20
2022-08-16T04:58:44.562Z,13.50
2022-08-16T05:01:15.156Z,13.98
2022-08-16T05:07:12.100Z,14.30
2022-08-16T05:10:03.872Z,13.38
2022-08-16T05:12:49.901Z,14.02
2022-08-16T05:15:19.632Z,14.88
2022-08-16T05:17:58.711Z,14.25
2022-08-16T05:20:38.842Z,14.18
2022-08-16T05:23:17.967Z,15.15
2022-08-16T05:25:51.545Z,14.50
2022-08-16T05:28:23.392Z,14.13
2022-08-16T05:31:07.666Z,14.32
2022-08-16T05:36:14.379Z,14.13
2022-08-16T05:38:52.510Z,15.18
2022-08-16T05:41:23.006Z,13.90
2022-08-16T05:44:01.224Z,14.68
2022-08-16T05:46:43.908Z,15.25
2022-08-16T05:49:22.369Z,14.50
2022-08-16T05:51:55.612Z,15.13
2022-08-16T05:54:28.470Z,14.32
2022-08-16T05:57:01.510Z,15.23
2022-08-16T05:59:33.157Z,16.42
2022-08-16T06:02:03.413Z,15.88
2022-08-16T06:04:37.886Z,17.25
2022-08-16T06:07:24.791Z,15.83
2022-08-16T06:10:09.601Z,15.48
2022-08-16T06:12:40.577Z,15.50
2022-08-16T06:15:14.943Z,16.60
2022-08-16T06:17:46.918Z,15.40
2022-08-16T06:20:34.668Z,16.38
2022-08-16T06:23:17.458Z,15.55
2022-08-16T06:26:18.621Z,16.73
2022-08-16T06:28:50.271Z,15.68
2022-08-16T06:31:30.077Z,16.15
2022-08-16T06:34:01.092Z,17.10
2022-08-16T06:36:35.170Z,15.98
2022-08-16T06:39:14.065Z,15.48
2022-08-16T06:41:57.432Z,15.50
2022-08-16T06:44:59.096Z,15.57
2022-08-16T06:47:53.565Z,17.67
2022-08-16T06:50:29.681Z,16.17
2022-08-16T06:53:08.297Z,16.70
2022-08-16T06:55:43.280Z,17.67
2022-08-16T06:58:21.704Z,15.85
2022-08-16T07:00:59.933Z,18.02
2022-08-16T07:03:32.368Z,16.98
2022-08-16T07:06:05.630Z,17.65
2022-08-16T07:08:43.236Z,17.10
2022-08-16T07:11:13.367Z,16.48
2022-08-16T07:14:00.122Z,17.48
2022-08-16T07:16:42.974Z,18.08
2022-08-16T07:19:12.492Z,18.42
2022-08-16T07:21:46.509Z,18.08
2022-08-16T07:24:30.993Z,16.67
2022-08-16T07:27:08.578Z,18.50
2022-08-16T07:29:44.073Z,17.77
2022-08-16T07:32:14.528Z,17.42
2022-08-16T07:34:48.565Z,17.75
2022-08-16T07:37:22.369Z,17.35
2022-08-16T07:40:11.534Z,17.85
2022-08-16T07:42:47.876Z,17.17
2022-08-16T07:45:20.200Z,16.92
2022-08-16T07:47:53.706Z,18.00
2022-08-16T07:50:55.741Z,16.90
2022-08-16T07:53:16.019Z,17.58
2022-08-16T07:55:48.025Z,18.27
2022-08-16T07:58:33.721Z,18.08
2022-08-16T08:01:10.488Z,17.05
2022-08-16T08:03:48.779Z,16.83
2022-08-16T08:06:24.728Z,17.50
2022-08-16T08:08:57.381Z,15.88
2022-08-16T08:11:30.352Z,16.80
2022-08-16T08:14:06.708Z,16.20
2022-08-16T08:19:23.886Z,16.10
2022-08-16T08:22:00.957Z,15.85
2022-08-16T08:24:53.370Z,16.33
2022-08-16T08:27:32.801Z,15.38
2022-08-16T08:30:51.760Z,14.52
2022-08-16T08:32:59.595Z,16.10
2022-08-16T08:35:34.519Z,16.00
2022-08-16T08:38:08.667Z,16.08
2022-08-16T08:40:43.152Z,15.77
2022-08-16T08:43:18.458Z,15.30
2022-08-16T08:45:55.690Z,14.25
2022-08-16T08:48:33.725Z,14.77
2022-08-16T08:51:11.230Z,15.18
2022-08-16T08:53:59.143Z,14.20
2022-08-16T08:56:35.147Z,14.90
2022-08-16T08:59:31.530Z,14.80
2022-08-16T09:02:01.994Z,14.68
2022-08-16T09:04:42.000Z,14.70
2022-08-16T09:07:18.938Z,14.00
2022-08-16T09:09:49.742Z,14.20
2022-08-16T09:12:38.843Z,13.93
2022-08-16T09:15:14.327Z,14.02
2022-08-16T09:17:51.761Z,13.77
2022-08-16T09:20:27.682Z,14.43
2022-08-16T09:22:58.008Z,13.52
2022-08-16T09:25:38.506Z,13.18
2022-08-16T09:28:13.336Z,13.35
2022-08-16T09:31:11.002Z,12.70
2022-08-16T09:33:42.211Z,13.18
2022-08-16T09:36:32.017Z,12.95
2022-08-16T09:39:03.728Z,11.88
2022-08-16T09:41:33.611Z,12.43
2022-08-16T09:45:10.643Z,12.10
2022-08-16T09:46:57.677Z,12.35
2022-08-16T09:49:36.699Z,11.63
2022-08-16T09:52:09.452Z,11.85
2022-08-16T09:54:44.313Z,11.90
2022-08-16T09:57:14.961Z,11.63
2022-08-16T09:59:45.147Z,10.80
2022-08-16T10:02:27.305Z,11.60
2022-08-16T10:05:15.537Z,11.23
2022-08-16T10:07:47.349Z,9.70
2022-08-16T10:10:18.874Z,10.77
2022-08-16T10:13:16.367Z,10.95
2022-08-16T10:15:55.531Z,10.10
2022-08-16T10:19:02.280Z,10.02
2022-08-16T10:21:17.414Z,9.80
2022-08-16T10:23:53.447Z,9.57
2022-08-16T10:27:20.323Z,9.65
2022-08-16T10:29:19.924Z,10.18
2022-08-16T10:31:53.309Z,9.75
2022-08-16T10:34:32.519Z,10.02
2022-08-16T10:37:03.516Z,9.02
2022-08-16T10:39:41.440Z,9.35
2022-08-16T10:42:13.258Z,9.15
2022-08-16T10:44:53.743Z,9.20
2022-08-16T10:47:24.476Z,9.02
2022-08-16T10:49:56.139Z,9.43
2022-08-16T10:52:27.551Z,9.25
2022-08-16T10:57:55.485Z,9.45
2022-08-16T11:00:26.657Z,9.10
2022-08-16T11:03:00.249Z,9.77
2022-08-16T11:08:31.179Z,9.35
2022-08-16T11:11:11.781Z,9.38
2022-08-16T11:13:58.664Z,8.57
2022-08-16T11:19:19.130Z,8.57
2022-08-16T11:24:44.675Z,9.32
2022-08-16T11:27:20.525Z,8.70
2022-08-16T11:29:53.093Z,8.50
2022-08-16T11:32:31.352Z,9.00
2022-08-16T11:35:10.566Z,9.20
2022-08-16T11:40:36.237Z,8.60
2022-08-16T11:43:10.027Z,8.68
2022-08-16T11:45:42.526Z,8.38
2022-08-16T11:48:14.107Z,8.50
2022-08-16T11:50:44.854Z,8.20
2022-08-16T11:53:15.195Z,8.38
2022-08-16T11:55:46.193Z,7.97
2022-08-16T11:58:22.789Z,8.43
2022-08-16T12:00:55.768Z,8.57
2022-08-16T12:03:31.538Z,8.35
2022-08-16T12:06:10.679Z,8.75
2022-08-16T12:08:42.641Z,8.90
2022-08-16T12:11:13.557Z,8.38
2022-08-16T12:13:45.806Z,8.07
2022-08-16T12:16:17.652Z,8.27
2022-08-16T12:18:50.524Z,8.43
2022-08-16T12:21:20.304Z,9.20
2022-08-16T12:23:51.908Z,8.90
2022-08-16T12:26:23.758Z,8.32
2022-08-16T12:28:56.553Z,8.60
2022-08-16T12:31:26.908Z,8.90
2022-08-16T12:33:57.641Z,8.30
2022-08-16T12:36:29.966Z,8.60
2022-08-16T12:39:00.357Z,8.35
2022-08-16T12:41:34.755Z,8.55
2022-08-16T12:44:06.597Z,7.63
2022-08-16T12:46:36.829Z,8.23
2022-08-16T12:49:08.402Z,8.68
2022-08-16T12:51:58.709Z,7.88
2022-08-16T12:54:32.302Z,8.13
2022-08-16T12:57:14.135Z,8.32
2022-08-16T12:59:48.557Z,7.93
2022-08-16T13:02:33.279Z,7.93
2022-08-16T13:05:03.187Z,8.23
2022-08-16T13:07:42.467Z,8.07
2022-08-16T13:10:21.073Z,7.97
2022-08-16T13:13:07.013Z,7.82
2022-08-16T13:15:55.438Z,8.02
2022-08-16T13:18:34.067Z,7.28
2022-08-16T13:21:06.525Z,7.70
2022-08-16T13:23:43.320Z,7.80
2022-08-16T13:26:17.160Z,7.72
2022-08-16T13:28:47.873Z,7.32
2022-08-16T13:31:18.979Z,8.02
2022-08-16T13:33:48.497Z,7.60
2022-08-16T13:36:32.257Z,7.82
2022-08-16T13:39:07.799Z,7.30
2022-08-16T13:41:37.225Z,7.68
2022-08-16T13:44:09.476Z,8.48
2022-08-16T13:46:41.767Z,7.63
2022-08-16T13:49:11.570Z,7.57
2022-08-16T13:54:10.548Z,7.38
2022-08-16T13:56:41.425Z,6.72
2022-08-16T13:59:16.558Z,7.70
2022-08-16T14:01:56.683Z,7.60
2022-08-16T14:04:31.674Z,7.20
2022-08-16T14:07:02.957Z,7.13
2022-08-16T14:09:34.443Z,7.32
2022-08-16T14:12:09.808Z,7.70
2022-08-16T14:14:47.784Z,7.68
2022-08-16T14:17:19.333Z,7.72
2022-08-16T14:19:53.669Z,7.35
2022-08-16T14:22:39.945Z,7.28
2022-08-16T14:25:18.625Z,7.30
2022-08-16T14:27:48.613Z,7.07
2022-08-16T14:30:24.596Z,7.47
2022-08-16T14:32:56.129Z,7.68
2022-08-16T14:35:36.875Z,6.95
2022-08-16T14:38:19.242Z,7.13
2022-08-16T14:40:55.575Z,7.50
2022-08-16T14:43:25.415Z,7.45
2022-08-16T14:45:55.685Z,7.13
2022-08-16T14:48:26.798Z,7.43
2022-08-16T14:50:56.763Z,8.10
2022-08-16T14:53:27.101Z,7.68
2022-08-16T14:55:57.167Z,7.80
2022-08-16T14:58:34.871Z,7.97
2022-08-16T15:01:09.727Z,7.25
2022-08-16T15:03:44.769Z,7.50
2022-08-16T15:06:14.735Z,8.02
2022-08-16T15:08:46.095Z,7.80
2022-08-16T15:11:22.996Z,7.18
2022-08-16T15:13:52.534Z,7.20
2022-08-16T15:16:22.823Z,6.43
2022-08-16T15:19:00.509Z,5.70
2022-08-16T15:21:31.126Z,5.30
2022-08-16T15:24:01.216Z,5.40
2022-08-16T15:26:42.700Z,4.50
2022-08-16T15:29:14.625Z,4.88
2022-08-16T15:31:46.190Z,5.32
2022-08-16T15:34:25.934Z,4.47
2022-08-16T15:36:55.852Z,4.97
2022-08-16T15:39:30.224Z,5.25
2022-08-16T15:42:11.178Z,4.85
2022-08-16T15:44:52.233Z,4.25
2022-08-16T15:47:27.077Z,4.80
2022-08-16T15:49:58.074Z,5.00
2022-08-16T15:52:30.348Z,5.00
2022-08-16T15:55:07.490Z,4.82
2022-08-16T15:57:42.898Z,4.18
2022-08-16T16:00:14.959Z,3.90
2022-08-16T16:02:46.806Z,4.20
2022-08-16T16:05:20.624Z,4.30
2022-08-16T16:07:56.858Z,4.32
2022-08-16T16:10:39.799Z,4.30
2022-08-16T16:13:09.915Z,4.57
2022-08-16T16:15:41.223Z,4.65
2022-08-16T16:18:13.779Z,4.35
2022-08-16T16:20:47.550Z,4.30
2022-08-16T16:23:19.662Z,3.78
2022-08-16T16:25:54.705Z,3.95
2022-08-16T16:29:05.578Z,4.13
2022-08-16T16:31:20.072Z,3.92
2022-08-16T16:33:52.300Z,3.60
2022-08-16T16:36:28.707Z,3.47
2022-08-16T16:39:00.736Z,3.50
2022-08-16T16:41:32.236Z,3.50
2022-08-16T16:44:03.276Z,3.55
2022-08-16T16:46:43.157Z,3.70
2022-08-16T16:49:14.930Z,3.42
2022-08-16T16:51:49.656Z,3.13
2022-08-16T16:54:27.744Z,3.63
2022-08-16T16:56:58.632Z,3.95
2022-08-16T16:59:28.360Z,4.18
2022-08-16T17:02:38.929Z,3.80
2022-08-16T17:04:50.649Z,3.90
2022-08-16T17:07:24.243Z,4.38
2022-08-16T17:09:54.668Z,4.05
2022-08-16T17:12:46.805Z,4.80
2022-08-16T17:15:16.299Z,4.57
2022-08-16T17:18:00.128Z,4.28
2022-08-16T17:20:31.050Z,4.53
2022-08-16T17:25:36.681Z,5.38
2022-08-16T17:28:59.034Z,5.50
2022-08-16T17:30:58.586Z,5.57
2022-08-16T17:33:37.169Z,6.78
2022-08-16T17:36:36.622Z,6.95
2022-08-16T17:39:09.420Z,7.00
2022-08-16T17:41:39.069Z,7.65
2022-08-16T17:44:10.423Z,8.15
2022-08-16T17:46:50.089Z,8.23
2022-08-16T17:49:22.479Z,7.75
2022-08-16T17:51:51.794Z,8.35
2022-08-16T17:54:30.635Z,8.38
2022-08-16T17:57:01.350Z,8.63
2022-08-16T17:59:31.706Z,8.35
2022-08-16T18:02:42.613Z,8.15
2022-08-16T18:04:56.758Z,9.18
2022-08-16T18:09:56.966Z,9.70
2022-08-16T18:12:50.871Z,9.82
2022-08-16T18:15:20.811Z,9.00
2022-08-16T18:17:53.237Z,9.68
2022-08-16T18:20:41.980Z,9.85
2022-08-16T18:23:15.549Z,9.77
2022-08-16T18:25:50.601Z,8.13
2022-08-16T18:28:21.251Z,7.90
2022-08-16T18:30:52.854Z,8.55
2022-08-16T18:33:26.409Z,8.13
2022-08-16T18:35:57.825Z,7.82
2022-08-16T18:38:27.683Z,7.30
2022-08-16T18:40:58.376Z,8.25
2022-08-16T18:44:23.685Z,8.27
2022-08-16T18:46:17.798Z,8.13
2022-08-16T18:48:47.113Z,7.03
2022-08-16T18:51:21.583Z,7.60
2022-08-16T18:53:54.547Z,6.82
2022-08-16T18:56:53.765Z,7.50
2022-08-16T18:59:14.863Z,7.47
2022-08-16T19:01:44.322Z,7.35
2022-08-16T19:04:57.438Z,7.68
2022-08-16T19:07:03.280Z,7.70
2022-08-16T19:09:32.717Z,8.18
2022-08-16T19:12:07.446Z,8.27
2022-08-16T19:14:37.183Z,7.65
2022-08-16T19:17:06.679Z,7.57
2022-08-16T19:19:36.057Z,8.05
2022-08-16T19:22:06.359Z,7.35
2022-08-16T19:24:35.700Z,7.32
2022-08-16T19:27:10.179Z,7.38
2022-08-16T19:29:39.770Z,7.50
2022-08-16T19:32:19.045Z,8.00
2022-08-16T19:34:48.710Z,7.38
2022-08-16T19:37:18.046Z,8.20
2022-08-16T19:39:47.631Z,7.45
2022-08-16T19:44:51.734Z,7.65
2022-08-16T19:47:22.902Z,7.72
2022-08-16T19:49:52.482Z,7.40
2022-08-16T19:52:24.863Z,7.95
2022-08-16T19:55:04.773Z,7.65
2022-08-16T19:57:36.035Z,8.00
2022-08-16T20:00:12.403Z,7.72
2022-08-16T20:02:51.033Z,7.57
2022-08-16T20:05:25.265Z,7.43
2022-08-16T20:07:55.853Z,7.63
2022-08-16T20:10:31.645Z,7.80
2022-08-16T20:13:03.041Z,7.75
2022-08-16T20:15:34.208Z,7.88
2022-08-16T20:18:12.696Z,7.13
2022-08-16T20:20:55.890Z,7.20
2022-08-16T20:23:25.825Z,8.35
2022-08-16T20:25:56.600Z,8.23
2022-08-16T20:28:40.699Z,8.10
2022-08-16T20:31:16.950Z,8.27
2022-08-16T20:33:46.477Z,7.95
2022-08-16T20:36:16.855Z,8.27
2022-08-16T20:41:19.628Z,7.15
2022-08-16T20:43:50.719Z,7.68
2022-08-16T20:46:24.694Z,7.93
2022-08-16T20:48:54.275Z,7.85
2022-08-16T20:51:23.566Z,7.43
2022-08-16T20:53:52.871Z,8.02
2022-08-16T20:56:22.487Z,7.47
2022-08-16T20:58:53.254Z,8.48
2022-08-16T21:01:22.863Z,8.43
2022-08-16T21:03:52.847Z,7.95
2022-08-16T21:06:22.237Z,8.30
2022-08-16T21:08:54.153Z,8.77
2022-08-16T21:11:27.570Z,9.15
2022-08-16T21:14:00.460Z,8.93
2022-08-16T21:16:30.532Z,8.45
2022-08-16T21:19:00.806Z,8.70
2022-08-16T21:21:33.608Z,7.90
2022-08-16T21:24:04.143Z,8.38
2022-08-16T21:26:34.936Z,8.80
2022-08-16T21:29:11.262Z,7.75
2022-08-16T21:31:43.660Z,7.70
2022-08-16T21:34:13.252Z,8.57
2022-08-16T21:36:42.455Z,9.13
2022-08-16T21:39:11.638Z,9.45
2022-08-16T21:41:41.252Z,9.02
2022-08-16T21:44:12.055Z,8.98
2022-08-16T21:46:41.484Z,8.95
2022-08-16T21:49:10.651Z,9.02
2022-08-16T21:51:39.949Z,9.25
2022-08-16T21:54:09.646Z,9.27
2022-08-16T21:56:39.197Z,9.32
2022-08-16T21:59:11.009Z,9.02
2022-08-16T22:01:44.005Z,9.23
2022-08-16T22:04:37.316Z,9.50
2022-08-16T22:07:05.923Z,9.00
2022-08-16T22:09:35.375Z,9.40
2022-08-16T22:12:05.010Z,9.18
2022-08-16T22:17:05.132Z,9.40
2022-08-16T22:19:34.653Z,9.45
2022-08-16T22:22:04.880Z,9.13
2022-08-16T22:24:34.249Z,9.85
2022-08-16T22:27:03.547Z,9.57
2022-08-16T22:29:33.461Z,9.88
2022-08-16T22:32:05.626Z,9.25
2022-08-16T22:34:35.321Z,9.45
2022-08-16T22:37:04.623Z,10.15
2022-08-16T22:39:33.994Z,9.25
2022-08-16T22:42:08.408Z,9.27
2022-08-16T22:44:40.935Z,9.25
2022-08-16T22:47:14.637Z,10.02
2022-08-16T22:49:43.899Z,9.80
2022-08-16T22:52:13.531Z,9.90
2022-08-16T22:55:03.400Z,9.13
2022-08-16T22:57:32.921Z,9.25
2022-08-16T23:00:02.283Z,9.07
2022-08-16T23:02:33.095Z,9.05
2022-08-16T23:05:02.708Z,9.73
2022-08-16T23:07:31.934Z,9.15
2022-08-16T23:10:01.539Z,9.20
2022-08-16T23:12:31.221Z,9.88
2022-08-16T23:15:04.691Z,9.60
2022-08-16T23:17:36.122Z,9.98
2022-08-16T23:20:06.343Z,10.07
2022-08-16T23:23:20.885Z,10.35
2022-08-16T23:25:37.440Z,10.20
2022-08-16T23:28:08.382Z,9.80
2022-08-16T23:30:40.730Z,10.13
2022-08-16T23:33:15.286Z,10.25
2022-08-16T23:35:46.940Z,9.52
2022-08-16T23:38:38.108Z,9.95
2022-08-16T23:41:09.298Z,10.10
2022-08-16T23:43:44.947Z,9.73
2022-08-16T23:46:17.299Z,9.93
2022-08-16T23:49:58.643Z,9.30
2022-08-16T23:51:37.997Z,9.90
2022-08-16T23:54:09.754Z,10.27
2022-08-16T23:56:40.530Z,9.85
2022-08-16T23:59:10.717Z,10.02
